• Join FlightAware (Why Join?)
  • Login
  • US Flag 
12:52AM EDT


 

Airport Tracker/Info


-or-


 

Live Flight TrackerFlight Track Log ✈ UAL822 ✈ 01-May-2013 ✈ KORD - KIAD

Flight Track Log - Related Links

Times and Time Zones

All times are in EDT time to prevent confusion due to time zone crossing. See the UAL822 flight status page for this flight to view local times or setup timezone preferences in your user account.

Time Position Orientation Groundspeed Altitude Reporting Facility
EDT Latitude Longitude Course Direction KTS MPH feet Rate Location/Type
02:42PM 41.9500 -87.9000 95° East 173 199 1,700  Level Chicago TRACON
02:43PM 41.9167 -87.8500 132° Southeast 195 224 4,300 1,680 Climbing Chicago TRACON
02:44PM 41.8833 -87.7833 124° Southeast 263 303 5,000 540 Climbing Chicago TRACON
02:45PM 41.9593 -87.4684 97° East  Level FlightAware Approximate
02:45PM 41.8833 -87.6667 90° East 263 303 5,400  Level Chicago TRACON
02:46PM 41.9471 -87.3253 95° East  Level FlightAware Approximate
02:46PM 41.8667 -87.5833 105° East 277 319 5,900  Level Chicago TRACON
02:47PM 41.9369 -87.1820 95° East  Level FlightAware Approximate
02:47PM 41.9167 -87.5000 51° Northeast 291 335 7,400  Level Chicago TRACON
02:48PM 41.9333 -87.3667 80° East 302 348 11,100 2,880 Climbing Chicago TRACON
02:49PM 41.9369 -87.3233 84° East 303 349 12,600 2,160 Climbing Chicago Center
02:50PM 41.9414 -87.1828 88° East 315 362 14,900 1,140 Climbing Chicago Center
02:51PM 41.9456 -87.0611 87° East 326 375 15,000 1,380 Climbing Chicago Center
02:52PM 41.9481 -86.9422 88° East 322 371 17,800 2,160 Climbing Chicago Center
02:53PM 41.9497 -86.8158 89° East 332 382 19,500 1,980 Climbing Chicago Center
02:54PM 41.9519 -86.6747 89° East 374 430 22,000 2,460 Climbing Chicago Center
02:55PM 41.9528 -86.5011 90° East 385 443 24,700 2,160 Climbing Chicago Center
02:56PM 41.9544 -86.3525 89° East 393 452 26,600 1,740 Climbing Chicago Center
02:57PM 41.9528 -86.1989 91° East 406 467 28,400 1,680 Climbing Chicago Center
02:58PM 41.9231 -86.0481 105° East 420 483 30,100 1,500 Climbing Chicago Center
02:59PM 41.8922 -85.8947 105° East 425 489 31,600 1,680 Climbing Chicago Center
03:00PM 41.8617 -85.7400 105° East 428 493 33,600 1,800 Climbing Chicago Center
03:01PM 41.8322 -85.5889 105° East 419 482 35,300 1,620 Climbing Chicago Center
03:02PM 41.7967 -85.4058 105° East 416 479 37,000 780 Climbing Chicago Center
03:03PM 41.7656 -85.2519 105° East 424 488 37,000  Level Chicago Center
03:04PM 41.7333 -85.0989 106° East 428 493 37,000  Level Chicago Center
03:05PM 41.7092 -84.9728 104° East 416 479 37,000  Level Cleveland Center
03:06PM 41.6772 -84.8206 106° East 416 479 37,000  Level Cleveland Center
03:07PM 41.6619 -84.6694 98° East 416 479 37,000  Level Cleveland Center
03:08PM 41.6547 -84.5133 93° East 416 479 37,000  Level Cleveland Center
03:09PM 41.6497 -84.3572 92° East 416 479 37,000  Level Cleveland Center
03:10PM 41.6319 -84.1922 98° East 411 473 37,000  Level Cleveland Center
03:11PM 41.5758 -84.0558 119° Southeast 397 457 37,000  Level Cleveland Center
03:12PM 41.5131 -83.9247 123° Southeast 408 470 37,000  Level Cleveland Center
03:13PM 41.4522 -83.7942 122° Southeast 415 478 37,000  Level Cleveland Center
03:14PM 41.3911 -83.6639 122° Southeast 420 483 37,000  Level Cleveland Center
03:15PM 41.3319 -83.5311 121° Southeast 420 483 37,000  Level Cleveland Center
03:16PM 41.2708 -83.3983 121° Southeast 420 483 37,000  Level Cleveland Center
03:17PM 41.2072 -83.2631 122° Southeast 420 483 37,000  Level Cleveland Center
03:18PM 41.1556 -83.1481 121° Southeast 414 476 37,000  Level Cleveland Center
03:19PM 41.0942 -83.0106 121° Southeast 419 482 37,000  Level Cleveland Center
03:20PM 41.0322 -82.8789 122° Southeast 419 482 37,000  Level Cleveland Center
03:21PM 40.9722 -82.7475 121° Southeast 419 482 37,000  Level Cleveland Center
03:23PM 40.8586 -82.5033 122° Southeast 423 487 37,000  Level Indianapolis Center
03:24PM 40.7911 -82.3686 123° Southeast 429 494 37,000  Level Cleveland Center
03:25PM 40.7286 -82.2353 122° Southeast 424 488 37,000  Level Cleveland Center
03:26PM 40.6658 -82.1022 122° Southeast 419 482 37,000  Level Cleveland Center
03:27PM 40.6028 -81.9722 123° Southeast 424 488 37,000  Level Cleveland Center
03:28PM 40.5417 -81.8400 121° Southeast 419 482 37,000  Level Cleveland Center
03:29PM 40.4764 -81.7103 123° Southeast 419 482 37,000  Level Cleveland Center
03:30PM 40.4131 -81.5783 122° Southeast 419 482 37,000  Level Cleveland Center
03:31PM 40.3514 -81.4494 122° Southeast 419 482 37,000 -180 Level Cleveland Center
03:32PM 40.2900 -81.3181 121° Southeast 419 482 36,700 -840 Descending Cleveland Center
03:33PM 40.2281 -81.1894 122° Southeast 419 482 35,400 -1,200 Descending Cleveland Center
03:34PM 40.1642 -81.0611 123° Southeast 419 482 34,300 -1,080 Descending Cleveland Center
03:35PM 40.1019 -80.9306 122° Southeast 419 482 33,300 -660 Descending Cleveland Center
03:36PM 40.0378 -80.8028 123° Southeast 419 482 33,000 -180 Descending Cleveland Center
03:37PM 39.9753 -80.6778 123° Southeast 419 482 33,000  Level Cleveland Center
03:38PM 39.9169 -80.5369 118° Southeast 424 488 33,000  Level Cleveland Center
03:39PM 39.8564 -80.3939 119° Southeast 435 501 33,000  Level Cleveland Center
03:40PM 39.7997 -80.2481 117° Southeast 442 509 33,000  Level Cleveland Center
03:41PM 39.7411 -80.1053 118° Southeast 447 514 33,000 -600 Level Cleveland Center
03:43PM 39.6131 -79.7992 118° Southeast 459 528 31,200 -1,200 Descending Washington Center
03:44PM 39.5553 -79.6614 119° Southeast 448 516 29,100 -1,980 Descending Washington Center
03:45PM 39.5186 -79.5167 108° East 435 501 27,300 -1,740 Descending Washington Center
03:46PM 39.4900 -79.3672 104° East 428 493 25,700 -1,680 Descending Washington Center
03:47PM 39.4592 -79.2122 104° East 422 486 24,000 -1,380 Descending Washington Center
03:48PM 39.4303 -79.0683 105° East 408 470 22,900 -1,620 Descending Washington Center
03:49PM 39.4028 -78.9356 105° East 398 458 20,900 -1,980 Descending Washington Center
03:50PM 39.3789 -78.8108 104° East 376 433 19,000 -1,740 Descending Washington Center
03:51PM 39.3550 -78.6917 104° East 358 412 17,500 -1,860 Descending Washington Center
03:52PM 39.3308 -78.5753 105° East 345 397 15,400 -1,980 Descending Washington Center
03:53PM 39.3086 -78.4617 104° East 334 384 13,600 -1,620 Descending Washington Center
03:54PM 39.2878 -78.3725 107° East 334 384 12,200 -1,560 Descending Washington Center
03:55PM 39.2319 -78.2578 122° Southeast 318 366 10,600 -1,320 Descending Washington Center
03:56PM 39.1900 -78.1731 123° Southeast 302 348 9,700 -1,140 Descending Washington Center
03:57PM 39.1564 -78.0864 117° Southeast 282 325 8,400 -1,320 Descending Washington Center
03:58PM 39.1206 -78.0022 119° Southeast 270 311 7,100 -1,380 Descending Washington Center
03:59PM 39.0867 -77.9236 119° Southeast 270 311 5,700 -1,200 Descending Washington Center
04:00PM 39.0547 -77.8503 119° Southeast 257 296 4,700 -600 Descending Washington Center
04:01PM 39.0269 -77.7772 116° Southeast 228 262 4,500 -720 Descending Washington Center
04:04PM 38.9833 -77.6167 109° East 181 208 2,400 -900 Descending Potomac TRACON
04:05PM 38.9667 -77.5667 113° Southeast 152 175 1,500 -900 Descending Potomac TRACON